Terminal Aerodrome Forecast
Issued by NWS Sterling, VA

Home | Current Version | Previous Version | Text Only | Print | Product List | Glossary On
Versions: 1 2 3 4 5 6 7 8 9 10 11 12 13 14 15 16 17 18 19 20 21 22
000
FTUS41 KLWX 011100
TAFBWI
TAF
KBWI 011137Z 0112/0218 07005KT P6SM SCT010 BKN060
      TEMPO 0112/0113 04004KT P6SM BKN014
     FM011600 05005KT P6SM BKN035
     FM011900 06007KT P6SM SCT070
     FM020700 00000KT P6SM SCT020 BKN080
     FM021300 00000KT P6SM BKN045=

USA.gov is the U.S. government's official web portal to all federal, state and local government web resources and services.